createdAt,value
2022-08-09T00:00:12.018Z,6.30
2022-08-09T00:02:42.753Z,6.25
2022-08-09T00:06:19.738Z,6.60
2022-08-09T00:08:09.925Z,6.65
2022-08-09T00:10:40.466Z,5.82
2022-08-09T00:13:16.821Z,6.20
2022-08-09T00:15:59.249Z,6.57
2022-08-09T00:18:35.796Z,7.13
2022-08-09T00:21:07.673Z,6.63
2022-08-09T00:23:55.884Z,5.95
2022-08-09T00:26:32.830Z,6.82
2022-08-09T00:29:02.284Z,6.72
2022-08-09T00:31:58.304Z,7.22
2022-08-09T00:34:19.733Z,7.15
2022-08-09T00:36:48.765Z,7.95
2022-08-09T00:40:12.231Z,6.78
2022-08-09T00:44:19.181Z,7.13
2022-08-09T00:44:55.804Z,7.28
2022-08-09T00:47:25.080Z,7.82
2022-08-09T00:49:55.225Z,7.78
2022-08-09T00:52:30.139Z,6.60
2022-08-09T00:55:00.436Z,6.85
2022-08-09T00:57:34.842Z,7.22
2022-08-09T01:00:21.571Z,6.30
2022-08-09T01:02:54.982Z,7.32
2022-08-09T01:05:51.131Z,7.45
2022-08-09T01:08:26.959Z,7.20
2022-08-09T01:11:08.625Z,7.85
2022-08-09T01:13:58.517Z,7.45
2022-08-09T01:16:33.295Z,7.20
2022-08-09T01:19:16.658Z,7.47
2022-08-09T01:21:50.901Z,7.18
2022-08-09T01:24:36.322Z,7.72
2022-08-09T01:27:11.332Z,7.47
2022-08-09T01:29:55.083Z,7.40
2022-08-09T01:32:30.929Z,8.35
2022-08-09T01:35:18.228Z,7.50
2022-08-09T01:38:07.968Z,6.85
2022-08-09T01:40:42.566Z,6.68
2022-08-09T01:43:13.171Z,8.30
2022-08-09T01:45:46.215Z,8.57
2022-08-09T01:48:18.347Z,7.88
2022-08-09T01:50:54.973Z,7.55
2022-08-09T01:53:29.175Z,7.25
2022-08-09T01:56:10.900Z,8.20
2022-08-09T01:58:43.807Z,7.50
2022-08-09T02:01:18.447Z,8.07
2022-08-09T02:03:48.417Z,7.68
2022-08-09T02:06:39.154Z,7.53
2022-08-09T02:09:15.695Z,7.65
2022-08-09T02:11:45.366Z,7.43
2022-08-09T02:14:25.590Z,8.13
2022-08-09T02:17:15.166Z,7.13
2022-08-09T02:19:45.033Z,6.90
2022-08-09T02:22:27.310Z,6.68
2022-08-09T02:25:08.902Z,7.40
2022-08-09T02:27:58.085Z,6.50
2022-08-09T02:30:36.646Z,6.53
2022-08-09T02:33:07.812Z,7.10
2022-08-09T02:36:03.110Z,7.32
2022-08-09T02:38:35.778Z,7.60
2022-08-09T02:41:08.822Z,6.68
2022-08-09T02:43:53.459Z,6.95
2022-08-09T02:46:28.457Z,6.68
2022-08-09T02:49:00.093Z,6.55
2022-08-09T02:51:37.263Z,6.68
2022-08-09T02:54:13.749Z,6.35
2022-08-09T02:56:51.416Z,7.05
2022-08-09T02:59:25.840Z,7.18
2022-08-09T03:02:07.227Z,7.57
2022-08-09T03:04:41.220Z,6.72
2022-08-09T03:07:13.811Z,7.78
2022-08-09T03:09:54.399Z,7.97
2022-08-09T03:12:27.422Z,8.13
2022-08-09T03:14:55.940Z,8.10
2022-08-09T03:17:27.176Z,8.13
2022-08-09T03:20:05.228Z,8.07
2022-08-09T03:22:42.146Z,7.18
2022-08-09T03:25:26.068Z,7.68
2022-08-09T03:28:03.741Z,8.70
2022-08-09T03:30:36.563Z,7.93
2022-08-09T03:33:17.850Z,9.85
2022-08-09T03:36:13.804Z,8.35
2022-08-09T03:38:42.078Z,8.25
2022-08-09T03:41:15.630Z,7.53
2022-08-09T03:44:03.060Z,7.75
2022-08-09T03:46:33.719Z,9.15
2022-08-09T03:49:09.089Z,7.18
2022-08-09T03:51:55.542Z,9.15
2022-08-09T03:54:31.812Z,8.40
2022-08-09T03:57:04.531Z,8.40
2022-08-09T03:59:54.514Z,6.70
2022-08-09T04:02:26.763Z,7.80
2022-08-09T04:04:59.159Z,8.27
2022-08-09T04:07:47.871Z,8.40
2022-08-09T04:10:20.681Z,7.47
2022-08-09T04:12:51.016Z,6.32
2022-08-09T04:15:38.985Z,7.47
2022-08-09T04:18:16.480Z,7.78
2022-08-09T04:20:47.864Z,7.30
2022-08-09T04:23:17.252Z,6.85
2022-08-09T04:25:49.871Z,7.15
2022-08-09T04:31:07.855Z,6.60
2022-08-09T04:33:52.628Z,7.22
2022-08-09T04:36:27.254Z,7.80
2022-08-09T04:38:56.294Z,7.28
2022-08-09T04:41:32.299Z,6.63
2022-08-09T04:44:06.359Z,6.70
2022-08-09T04:46:57.655Z,7.55
2022-08-09T04:49:40.296Z,7.47
2022-08-09T04:52:21.992Z,6.68
2022-08-09T04:54:55.186Z,6.85
2022-08-09T04:57:24.517Z,5.72
2022-08-09T04:59:54.322Z,6.10
2022-08-09T05:02:22.814Z,6.70
2022-08-09T05:04:55.452Z,7.10
2022-08-09T05:07:29.273Z,6.80
2022-08-09T05:10:02.164Z,6.40
2022-08-09T05:12:32.813Z,5.68
2022-08-09T05:15:03.510Z,6.28
2022-08-09T05:18:50.601Z,6.22
2022-08-09T05:20:29.827Z,6.55
2022-08-09T05:23:57.932Z,6.15
2022-08-09T05:25:50.624Z,5.07
2022-08-09T05:28:19.723Z,5.75
2022-08-09T05:30:48.686Z,6.35
2022-08-09T05:33:19.720Z,5.65
2022-08-09T05:35:54.593Z,6.50
2022-08-09T05:38:27.914Z,6.10
2022-08-09T05:40:56.141Z,5.15
2022-08-09T05:43:24.226Z,6.60
2022-08-09T05:45:57.814Z,5.45
2022-08-09T05:48:27.842Z,6.00
2022-08-09T05:51:30.030Z,5.50
2022-08-09T05:53:56.639Z,5.72
2022-08-09T05:56:27.292Z,5.60
2022-08-09T05:58:58.776Z,5.88
2022-08-09T06:01:34.086Z,6.28
2022-08-09T06:04:12.125Z,6.30
2022-08-09T06:06:45.178Z,5.38
2022-08-09T06:09:40.533Z,6.57
2022-08-09T06:12:08.388Z,5.43
2022-08-09T06:14:37.163Z,5.97
2022-08-09T06:17:10.091Z,5.85
2022-08-09T06:19:38.344Z,5.55
2022-08-09T06:22:14.873Z,6.30
2022-08-09T06:24:45.034Z,5.95
2022-08-09T06:27:15.600Z,6.05
2022-08-09T06:29:58.469Z,5.30
2022-08-09T06:32:53.370Z,5.38
2022-08-09T06:35:20.906Z,6.15
2022-08-09T06:38:06.084Z,6.10
2022-08-09T06:40:36.554Z,5.43
2022-08-09T06:43:07.691Z,5.72
2022-08-09T06:46:05.283Z,5.85
2022-08-09T06:48:30.834Z,5.63
2022-08-09T06:50:59.913Z,5.63
2022-08-09T06:53:33.420Z,5.97
2022-08-09T06:56:09.761Z,4.88
2022-08-09T07:00:47.621Z,5.25
2022-08-09T07:01:53.502Z,5.63
2022-08-09T07:04:20.163Z,6.70
2022-08-09T07:06:53.088Z,6.22
2022-08-09T07:09:56.090Z,5.55
2022-08-09T07:12:17.349Z,6.20
2022-08-09T07:14:45.937Z,6.03
2022-08-09T07:17:20.056Z,5.68
2022-08-09T07:19:55.109Z,4.78
2022-08-09T07:22:34.650Z,5.75
2022-08-09T07:25:05.503Z,5.78
2022-08-09T07:27:43.067Z,4.25
2022-08-09T07:30:25.298Z,4.28
2022-08-09T07:32:54.958Z,4.50
2022-08-09T07:35:23.306Z,4.93
2022-08-09T07:37:54.006Z,4.28
2022-08-09T07:40:37.203Z,4.53
2022-08-09T07:43:17.472Z,4.20
2022-08-09T07:45:45.471Z,4.68
2022-08-09T07:48:28.563Z,4.75
2022-08-09T07:51:09.015Z,5.38
2022-08-09T07:54:07.836Z,5.18
2022-08-09T07:56:44.937Z,5.40
2022-08-09T07:59:34.663Z,6.97
2022-08-09T08:02:19.787Z,5.07
2022-08-09T08:04:48.729Z,6.28
2022-08-09T08:09:00.513Z,3.50
2022-08-09T08:10:08.735Z,5.57
2022-08-09T08:12:43.690Z,4.55
2022-08-09T08:17:54.591Z,5.65
2022-08-09T08:20:28.876Z,5.85
2022-08-09T08:23:03.705Z,9.63
2022-08-09T08:25:46.185Z,8.45
2022-08-09T08:28:15.522Z,7.30
2022-08-09T08:30:47.936Z,6.55
2022-08-09T08:33:23.710Z,6.18
2022-08-09T08:35:58.398Z,5.80
2022-08-09T08:38:28.263Z,10.35
2022-08-09T08:40:58.223Z,6.72
2022-08-09T08:43:27.720Z,5.70
2022-08-09T08:46:25.052Z,6.32
2022-08-09T08:48:53.616Z,6.30
2022-08-09T08:51:22.857Z,6.10
2022-08-09T08:54:03.109Z,6.60
2022-08-09T08:56:38.161Z,6.80
2022-08-09T08:59:19.068Z,5.80
2022-08-09T09:01:56.623Z,6.35
2022-08-09T09:04:29.922Z,6.60
2022-08-09T09:07:03.899Z,6.55
2022-08-09T09:10:02.831Z,5.47
2022-08-09T09:12:31.436Z,5.85
2022-08-09T09:15:05.848Z,5.47
2022-08-09T09:17:48.913Z,4.50
2022-08-09T09:20:21.927Z,3.67
2022-08-09T09:22:55.566Z,3.78
2022-08-09T09:26:03.682Z,5.80
2022-08-09T09:29:02.372Z,4.45
2022-08-09T09:32:06.691Z,5.20
2022-08-09T09:34:18.346Z,5.55
2022-08-09T09:36:53.940Z,4.78
2022-08-09T09:39:25.569Z,5.90
2022-08-09T09:42:24.362Z,6.30
2022-08-09T09:44:57.744Z,6.03
2022-08-09T09:47:28.497Z,4.05
2022-08-09T09:50:14.333Z,3.65
2022-08-09T09:52:53.626Z,4.00
2022-08-09T09:55:32.680Z,4.10
2022-08-09T09:58:16.808Z,4.72
2022-08-09T10:00:54.615Z,3.63
2022-08-09T10:03:42.814Z,5.75
2022-08-09T10:06:13.639Z,4.50
2022-08-09T10:08:55.226Z,5.90
2022-08-09T10:12:01.318Z,4.75
2022-08-09T10:14:27.338Z,6.45
2022-08-09T10:17:40.303Z,6.15
2022-08-09T10:19:47.287Z,6.70
2022-08-09T10:25:10.815Z,5.88
2022-08-09T10:27:54.516Z,5.63
2022-08-09T10:34:07.957Z,4.85
2022-08-09T10:36:04.544Z,6.72
2022-08-09T10:38:56.014Z,6.00
2022-08-09T10:41:22.447Z,6.00
2022-08-09T10:43:59.287Z,6.40
2022-08-09T10:46:55.599Z,5.60
2022-08-09T10:49:49.996Z,5.88
2022-08-09T10:52:37.362Z,5.93
2022-08-09T10:55:35.636Z,5.45
2022-08-09T10:58:39.222Z,5.43
2022-08-09T11:03:14.778Z,5.10
2022-08-09T11:04:34.826Z,5.45
2022-08-09T11:07:57.749Z,7.25
2022-08-09T11:13:51.217Z,5.47
2022-08-09T11:16:35.009Z,5.40
2022-08-09T11:19:08.085Z,5.30
2022-08-09T11:28:04.127Z,5.20
2022-08-09T11:30:34.624Z,4.72
2022-08-09T11:33:05.851Z,5.22
2022-08-09T11:35:50.115Z,4.80
2022-08-09T11:38:22.197Z,5.28
2022-08-09T11:40:57.424Z,4.85
2022-08-09T11:43:49.086Z,4.68
2022-08-09T11:46:33.155Z,4.97
2022-08-09T11:53:15.908Z,4.40
2022-08-09T11:55:51.698Z,5.13
2022-08-09T11:58:50.083Z,4.97
2022-08-09T12:01:37.532Z,4.35
2022-08-09T12:04:20.922Z,4.22
2022-08-09T12:06:57.833Z,3.63
2022-08-09T12:09:27.768Z,4.15
2022-08-09T12:12:06.022Z,3.30
2022-08-09T12:15:04.127Z,4.15
2022-08-09T12:17:44.556Z,3.35
2022-08-09T12:20:16.567Z,4.30
2022-08-09T12:22:51.327Z,4.18
2022-08-09T12:25:36.864Z,3.60
2022-08-09T12:28:59.249Z,3.50
2022-08-09T12:33:51.355Z,3.45
2022-08-09T12:36:31.265Z,3.78
2022-08-09T12:39:00.950Z,3.65
2022-08-09T12:41:36.324Z,4.20
2022-08-09T12:44:09.850Z,3.90
2022-08-09T12:46:43.544Z,3.45
2022-08-09T12:49:21.401Z,3.70
2022-08-09T12:52:02.304Z,3.67
2022-08-09T12:56:11.077Z,3.50
2022-08-09T12:57:38.705Z,3.40
2022-08-09T13:00:17.547Z,3.65
2022-08-09T13:02:53.433Z,3.60
2022-08-09T13:05:25.451Z,3.80
2022-08-09T13:08:15.467Z,3.63
2022-08-09T13:10:52.478Z,3.63
2022-08-09T13:14:12.004Z,3.50
2022-08-09T13:16:20.405Z,4.07
2022-08-09T13:18:53.578Z,4.28
2022-08-09T13:22:37.419Z,5.95
2022-08-09T13:24:52.538Z,4.18
2022-08-09T13:27:04.685Z,4.40
2022-08-09T13:30:03.272Z,4.00
2022-08-09T13:32:27.619Z,3.90
2022-08-09T13:35:00.233Z,4.45
2022-08-09T13:37:51.814Z,4.47
2022-08-09T13:41:39.018Z,4.57
2022-08-09T13:43:10.119Z,4.07
2022-08-09T13:46:43.016Z,4.00
2022-08-09T13:48:31.653Z,4.10
2022-08-09T13:50:59.761Z,4.03
2022-08-09T13:53:41.421Z,3.75
2022-08-09T13:56:12.684Z,4.72
2022-08-09T13:58:40.732Z,4.63
2022-08-09T14:01:13.471Z,4.65
2022-08-09T14:04:01.479Z,4.03
2022-08-09T14:06:32.222Z,3.90
2022-08-09T14:09:04.870Z,4.50
2022-08-09T14:11:32.963Z,4.63
2022-08-09T14:14:26.790Z,4.85
2022-08-09T14:16:56.686Z,4.32
2022-08-09T14:19:33.247Z,3.80
2022-08-09T14:22:02.008Z,4.15
2022-08-09T14:24:33.567Z,4.72
2022-08-09T14:27:02.213Z,5.47
2022-08-09T14:30:35.928Z,4.40
2022-08-09T14:32:28.546Z,4.57
2022-08-09T14:34:59.023Z,4.20
2022-08-09T14:37:28.506Z,4.20
2022-08-09T14:40:12.007Z,4.50
2022-08-09T14:42:41.349Z,4.10
2022-08-09T14:46:40.044Z,4.35
2022-08-09T14:48:02.522Z,4.38
2022-08-09T14:50:33.003Z,3.95
2022-08-09T14:53:03.645Z,4.00
2022-08-09T14:55:42.329Z,5.00
2022-08-09T14:58:16.360Z,3.60
2022-08-09T15:00:48.251Z,3.97
2022-08-09T15:03:20.516Z,4.13
2022-08-09T15:05:51.286Z,4.15
2022-08-09T15:08:23.879Z,4.10
2022-08-09T15:11:00.692Z,4.10
2022-08-09T15:13:48.007Z,4.43
2022-08-09T15:16:18.606Z,4.05
2022-08-09T15:18:48.443Z,5.07
2022-08-09T15:21:58.781Z,4.28
2022-08-09T15:24:12.815Z,4.80
2022-08-09T15:26:46.006Z,4.60
2022-08-09T15:30:57.628Z,4.65
2022-08-09T15:32:03.178Z,4.65
2022-08-09T15:34:35.098Z,6.25
2022-08-09T15:37:24.020Z,7.13
2022-08-09T15:40:06.079Z,7.88
2022-08-09T15:42:42.566Z,8.05
2022-08-09T15:45:13.633Z,8.98
2022-08-09T15:47:52.320Z,5.35
2022-08-09T15:50:29.960Z,4.25
2022-08-09T15:53:06.654Z,4.43
2022-08-09T15:55:58.956Z,4.95
2022-08-09T15:58:27.230Z,4.35
2022-08-09T16:00:56.550Z,4.20
2022-08-09T16:03:29.635Z,3.47
2022-08-09T16:06:07.365Z,5.07
2022-08-09T16:08:56.098Z,3.75
2022-08-09T16:11:24.332Z,4.22
2022-08-09T16:14:06.295Z,3.95
2022-08-09T16:16:37.219Z,4.07
2022-08-09T16:19:06.245Z,5.10
2022-08-09T16:21:36.051Z,3.50
2022-08-09T16:24:04.875Z,3.63
2022-08-09T16:26:36.286Z,3.83
2022-08-09T16:29:11.022Z,3.72
2022-08-09T16:32:17.934Z,4.15
2022-08-09T16:34:55.721Z,3.63
2022-08-09T16:37:18.628Z,4.07
2022-08-09T16:39:54.725Z,3.88
2022-08-09T16:42:33.426Z,4.38
2022-08-09T16:45:03.251Z,3.97
2022-08-09T16:48:40.192Z,3.60
2022-08-09T16:50:31.353Z,3.67
2022-08-09T16:53:01.211Z,3.60
2022-08-09T16:55:44.450Z,3.20
2022-08-09T16:58:18.246Z,2.95
2022-08-09T17:00:48.256Z,3.65
2022-08-09T17:03:21.482Z,4.82
2022-08-09T17:06:09.255Z,3.80
2022-08-09T17:08:56.920Z,3.88
2022-08-09T17:11:40.390Z,4.07
2022-08-09T17:14:16.016Z,4.05
2022-08-09T17:16:56.842Z,3.95
2022-08-09T17:19:47.384Z,3.97
2022-08-09T17:22:16.632Z,3.50
2022-08-09T17:24:55.185Z,3.72
2022-08-09T17:27:23.900Z,3.92
2022-08-09T17:29:52.084Z,3.55
2022-08-09T17:32:35.147Z,4.68
2022-08-09T17:35:11.185Z,3.78
2022-08-09T17:38:12.053Z,3.72
2022-08-09T17:40:30.097Z,4.10
2022-08-09T17:42:59.718Z,4.38
2022-08-09T17:46:03.069Z,3.95
2022-08-09T17:48:29.403Z,4.10
2022-08-09T17:51:08.943Z,4.05
2022-08-09T17:53:43.236Z,4.75
2022-08-09T17:56:11.737Z,4.50
2022-08-09T17:58:42.788Z,4.05
2022-08-09T18:01:15.477Z,4.35
2022-08-09T18:03:54.671Z,4.90
2022-08-09T18:06:31.239Z,4.70
2022-08-09T18:09:02.004Z,3.92
2022-08-09T18:12:05.590Z,4.40
2022-08-09T18:14:22.645Z,4.45
2022-08-09T18:16:51.082Z,3.83
2022-08-09T18:20:54.655Z,3.92
2022-08-09T18:22:16.899Z,3.40
2022-08-09T18:24:46.520Z,3.22
2022-08-09T18:27:49.125Z,3.58
2022-08-09T18:30:42.198Z,3.70
2022-08-09T18:32:54.626Z,3.42
2022-08-09T18:35:58.466Z,2.97
2022-08-09T18:38:13.200Z,2.92
2022-08-09T18:40:43.055Z,3.15
2022-08-09T18:43:12.525Z,2.88
2022-08-09T18:46:47.501Z,3.00
2022-08-09T18:48:30.413Z,3.30
2022-08-09T18:51:02.441Z,3.47
2022-08-09T18:53:56.425Z,3.38
2022-08-09T18:56:27.780Z,3.03
2022-08-09T18:58:56.776Z,2.97
2022-08-09T19:01:25.716Z,3.20
2022-08-09T19:04:06.059Z,2.88
2022-08-09T19:06:38.633Z,2.35
2022-08-09T19:09:20.350Z,2.70
2022-08-09T19:11:48.532Z,2.92
2022-08-09T19:14:29.104Z,3.03
2022-08-09T19:16:57.601Z,3.15
2022-08-09T19:19:28.195Z,3.40
2022-08-09T19:22:06.244Z,3.40
2022-08-09T19:25:10.005Z,3.00
2022-08-09T19:27:23.489Z,3.22
2022-08-09T19:30:21.455Z,3.40
2022-08-09T19:32:42.065Z,3.03
2022-08-09T19:35:10.502Z,2.88
2022-08-09T19:37:52.782Z,3.38
2022-08-09T19:40:23.760Z,3.10
2022-08-09T19:43:05.436Z,3.03
2022-08-09T19:45:39.094Z,2.92
2022-08-09T19:48:10.999Z,3.03
2022-08-09T19:50:49.694Z,3.00
2022-08-09T19:53:21.116Z,3.40
2022-08-09T19:56:02.955Z,3.13
2022-08-09T19:58:34.727Z,3.28
2022-08-09T20:01:02.910Z,3.33
2022-08-09T20:04:12.177Z,3.20
2022-08-09T20:06:23.540Z,3.78
2022-08-09T20:08:59.379Z,3.20
2022-08-09T20:11:43.041Z,3.30
2022-08-09T20:14:15.621Z,3.28
2022-08-09T20:16:53.321Z,3.00
2022-08-09T20:19:48.176Z,3.05
2022-08-09T20:22:14.112Z,3.80
2022-08-09T20:24:53.392Z,3.42
2022-08-09T20:27:23.076Z,3.53
2022-08-09T20:29:51.262Z,3.53
2022-08-09T20:32:31.225Z,3.40
2022-08-09T20:35:02.445Z,3.30
2022-08-09T20:38:19.449Z,3.47
2022-08-09T20:40:26.955Z,3.13
2022-08-09T20:43:00.457Z,3.70
2022-08-09T20:45:56.807Z,3.63
2022-08-09T20:48:28.969Z,3.70
2022-08-09T20:50:59.459Z,3.47
2022-08-09T20:53:37.619Z,3.25
2022-08-09T20:56:20.544Z,3.00
2022-08-09T20:58:49.970Z,3.05
2022-08-09T21:01:34.954Z,3.42
2022-08-09T21:05:49.038Z,4.03
2022-08-09T21:06:55.432Z,3.67
2022-08-09T21:09:32.766Z,3.40
2022-08-09T21:14:42.602Z,3.60
2022-08-09T21:18:21.318Z,3.80
2022-08-09T21:20:25.475Z,3.70
2022-08-09T21:22:54.554Z,3.75
2022-08-09T21:25:44.489Z,3.47
2022-08-09T21:28:33.639Z,3.58
2022-08-09T21:31:17.697Z,3.60
2022-08-09T21:33:51.033Z,3.92
2022-08-09T21:36:22.996Z,4.15
2022-08-09T21:38:57.832Z,4.05
2022-08-09T21:42:03.896Z,4.20
2022-08-09T21:44:33.745Z,3.60
2022-08-09T21:47:05.401Z,3.78
2022-08-09T21:49:39.411Z,3.88
2022-08-09T21:52:16.970Z,3.83
2022-08-09T21:54:50.808Z,4.07
2022-08-09T21:57:38.844Z,3.83
2022-08-09T22:00:25.954Z,4.30
2022-08-09T22:02:59.399Z,4.07
2022-08-09T22:05:37.048Z,4.25
2022-08-09T22:08:13.682Z,4.18
2022-08-09T22:11:50.505Z,4.25
2022-08-09T22:13:34.466Z,4.03
2022-08-09T22:16:07.300Z,4.68
2022-08-09T22:18:37.346Z,3.88
2022-08-09T22:21:09.708Z,4.13
2022-08-09T22:23:59.632Z,4.17
2022-08-09T22:26:35.049Z,4.47
2022-08-09T22:29:08.696Z,4.38
2022-08-09T22:31:50.302Z,4.78
2022-08-09T22:34:25.470Z,3.70
2022-08-09T22:36:54.109Z,3.38
2022-08-09T22:39:56.305Z,4.28
2022-08-09T22:42:20.902Z,4.25
2022-08-09T22:45:02.329Z,4.47
2022-08-09T22:48:10.181Z,4.90
2022-08-09T22:50:29.754Z,3.60
2022-08-09T22:52:58.735Z,5.32
2022-08-09T22:55:39.303Z,3.10
2022-08-09T22:58:31.020Z,4.43
2022-08-09T23:01:02.501Z,3.67
2022-08-09T23:04:04.252Z,4.82
2022-08-09T23:06:35.306Z,4.82
2022-08-09T23:09:04.278Z,4.53
2022-08-09T23:11:32.357Z,5.07
2022-08-09T23:14:00.370Z,4.32
2022-08-09T23:16:28.475Z,5.18
2022-08-09T23:18:57.964Z,4.38
2022-08-09T23:21:30.070Z,4.90
2022-08-09T23:24:06.257Z,4.90
2022-08-09T23:26:35.377Z,4.72
2022-08-09T23:29:03.485Z,5.10
2022-08-09T23:31:31.549Z,4.65
2022-08-09T23:34:01.091Z,4.72
2022-08-09T23:36:32.070Z,5.82
2022-08-09T23:39:00.261Z,6.32
2022-08-09T23:41:29.690Z,5.95
2022-08-09T23:43:59.271Z,5.90
2022-08-09T23:46:27.565Z,5.97
2022-08-09T23:48:55.721Z,5.57
2022-08-09T23:51:25.412Z,6.30
2022-08-09T23:53:55.453Z,5.90
2022-08-09T23:56:52.775Z,5.85
2022-08-09T23:59:20.491Z,5.70
